Time;durP1;ratioP1;P1;durP2;ratioP2;P2;SDS_P1;SDS_P2;PMS_P1;PMS_P2;Temp;Humidity;BMP_temperature;BMP_pressure;BME280_temperature;BME280_humidity;BME280_pressure;Samples;Min_cycle;Max_cycle;Signal;HPM_P1;HPM_P2
2022/07/29 00:02:15;;;;;;;8.23;2.92;;;15.80;82.20;;;;;;5093905;28;20381;-70
2022/07/29 00:04:40;;;;;;;2.92;2.65;;;15.80;82.30;;;;;;5093955;28;20058;-78
2022/07/29 00:07:06;;;;;;;7.00;2.70;;;15.70;83.30;;;;;;5093758;28;20034;-79
2022/07/29 00:09:32;;;;;;;5.28;3.03;;;15.70;83.60;;;;;;5093790;28;20055;-78
2022/07/29 00:12:00;;;;;;;5.68;3.25;;;15.60;84.00;;;;;;5093812;28;20020;-70
2022/07/29 00:14:26;;;;;;;4.47;2.60;;;15.60;84.20;;;;;;5093773;28;20065;-78
2022/07/29 00:16:52;;;;;;;3.78;2.90;;;15.50;84.70;;;;;;5092306;28;20027;-71
2022/07/29 00:19:17;;;;;;;3.65;2.70;;;15.50;85.40;;;;;;5093723;28;20073;-71
2022/07/29 00:21:43;;;;;;;3.72;3.15;;;15.50;85.40;;;;;;5093564;28;20051;-70
2022/07/29 00:24:09;;;;;;;4.65;2.92;;;15.50;85.00;;;;;;5093558;28;20492;-71
2022/07/29 00:26:35;;;;;;;5.07;3.05;;;15.40;85.20;;;;;;5093493;28;20024;-71
2022/07/29 00:29:03;;;;;;;3.92;2.95;;;15.40;85.10;;;;;;5092260;28;20508;-70
2022/07/29 00:31:28;;;;;;;4.28;2.72;;;15.40;84.60;;;;;;5093504;28;20024;-70
2022/07/29 00:33:54;;;;;;;3.20;2.65;;;15.40;85.00;;;;;;5093488;28;20086;-79
2022/07/29 00:36:20;;;;;;;7.60;3.03;;;15.40;85.30;;;;;;5093163;28;20146;-70
2022/07/29 00:38:51;;;;;;;6.88;2.75;;;15.30;85.70;;;;;;5093516;28;20024;-78
2022/07/29 00:41:18;;;;;;;4.28;2.88;;;15.30;85.20;;;;;;5093216;28;20027;-71
2022/07/29 00:43:44;;;;;;;7.15;2.92;;;15.30;86.10;;;;;;5093356;28;20417;-78
2022/07/29 00:46:10;;;;;;;5.43;2.67;;;15.30;85.90;;;;;;5093064;28;20035;-71
2022/07/29 00:48:35;;;;;;;6.35;2.55;;;15.30;85.90;;;;;;5092069;28;20048;-79
2022/07/29 00:51:04;;;;;;;4.60;2.80;;;15.30;85.50;;;;;;5093196;28;20048;-70
2022/07/29 00:53:30;;;;;;;6.93;3.03;;;15.30;85.10;;;;;;5093262;28;20138;-78
2022/07/29 00:55:56;;;;;;;5.05;2.90;;;15.30;85.30;;;;;;5093291;28;20097;-79
2022/07/29 00:58:23;;;;;;;3.53;2.42;;;15.30;84.50;;;;;;5093011;28;20043;-78
2022/07/29 01:00:49;;;;;;;2.95;2.65;;;15.30;85.00;;;;;;5093238;28;20024;-78
2022/07/29 01:03:15;;;;;;;5.70;3.20;;;15.30;84.30;;;;;;5093061;28;20061;-71
2022/07/29 01:05:43;;;;;;;2.88;2.63;;;15.40;83.90;;;;;;5093094;28;20119;-72
2022/07/29 01:08:10;;;;;;;6.30;2.85;;;15.40;83.90;;;;;;5093070;28;20099;-71
2022/07/29 01:10:39;;;;;;;4.38;2.50;;;15.40;82.90;;;;;;5093060;28;20016;-70
2022/07/29 01:13:05;;;;;;;7.55;2.47;;;15.40;82.20;;;;;;5075183;28;20032;-78
2022/07/29 01:15:32;;;;;;;4.75;2.63;;;15.50;82.10;;;;;;5093125;28;20024;-78
2022/07/29 01:18:11;;;;;;;3.58;2.45;;;15.50;82.60;;;;;;5091730;28;20036;-70
2022/07/29 01:20:37;;;;;;;4.93;2.70;;;15.50;81.90;;;;;;5091805;28;20020;-78
2022/07/29 01:23:30;;;;;;;4.55;2.47;;;15.40;81.40;;;;;;5092875;28;20035;-71
2022/07/29 01:26:42;;;;;;;5.90;2.15;;;15.40;81.70;;;;;;5093063;28;20431;-78
2022/07/29 01:29:38;;;;;;;4.07;2.47;;;15.40;81.00;;;;;;5093089;28;20016;-78
2022/07/29 01:32:18;;;;;;;2.70;2.47;;;15.40;81.30;;;;;;5092725;28;20024;-79
2022/07/29 01:34:55;;;;;;;5.82;3.58;;;15.40;81.20;;;;;;5093058;28;20016;-79
2022/07/29 01:37:39;;;;;;;4.20;2.13;;;15.40;81.20;;;;;;5092818;28;20089;-78
2022/07/29 01:40:19;;;;;;;5.35;2.53;;;15.40;81.60;;;;;;5092815;28;20065;-78
2022/07/29 01:42:51;;;;;;;3.63;2.35;;;15.40;82.30;;;;;;5072538;28;20029;-78
2022/07/29 01:45:23;;;;;;;2.70;2.28;;;15.30;82.70;;;;;;5072543;28;20016;-78
2022/07/29 01:48:22;;;;;;;3.47;2.33;;;15.30;83.00;;;;;;5071194;28;20021;-78
2022/07/29 01:51:04;;;;;;;4.03;2.22;;;15.20;82.20;;;;;;5085648;28;20427;-78
2022/07/29 01:53:35;;;;;;;4.45;2.10;;;15.20;82.30;;;;;;5092839;28;20077;-70
2022/07/29 01:56:03;;;;;;;3.60;2.25;;;15.20;82.20;;;;;;5092757;28;20350;-70
2022/07/29 01:58:31;;;;;;;3.03;2.15;;;15.20;82.10;;;;;;5092567;28;20016;-79
2022/07/29 02:00:59;;;;;;;3.70;2.08;;;15.20;81.90;;;;;;5092757;28;20027;-78
2022/07/29 02:03:26;;;;;;;4.97;3.35;;;15.20;81.60;;;;;;5091125;28;20474;-70
2022/07/29 02:05:55;;;;;;;4.13;2.00;;;15.20;81.60;;;;;;5091915;28;20027;-70
2022/07/29 02:08:22;;;;;;;2.22;2.03;;;15.20;81.60;;;;;;5095902;28;20032;-79
2022/07/29 02:10:49;;;;;;;2.83;2.42;;;15.20;81.50;;;;;;5096176;28;20027;-70
2022/07/29 02:13:17;;;;;;;3.22;2.13;;;15.20;81.40;;;;;;5094731;28;20493;-77
2022/07/29 02:15:44;;;;;;;3.17;2.22;;;15.20;81.40;;;;;;5095944;28;20021;-78
2022/07/29 02:18:17;;;;;;;3.53;1.80;;;15.10;81.50;;;;;;5095917;28;20121;-78
2022/07/29 02:20:46;;;;;;;2.53;1.98;;;15.10;81.60;;;;;;5096124;28;20012;-78
2022/07/29 02:23:13;;;;;;;2.45;1.70;;;15.10;81.30;;;;;;5094488;28;20055;-78
2022/07/29 02:25:41;;;;;;;3.70;2.15;;;15.10;81.30;;;;;;5096005;28;20032;-78
2022/07/29 02:28:07;;;;;;;2.92;2.08;;;15.00;81.10;;;;;;5095656;28;20039;-78
2022/07/29 02:30:38;;;;;;;5.38;2.08;;;15.00;81.70;;;;;;5094477;28;20031;-78
2022/07/29 02:33:05;;;;;;;6.53;2.20;;;15.00;81.70;;;;;;5094350;28;20028;-70
2022/07/29 02:35:31;;;;;;;5.00;1.90;;;15.00;82.20;;;;;;5094450;28;20477;-71
2022/07/29 02:40:43;;;;;;;3.92;2.10;;;15.00;82.40;;;;;;5095888;28;20038;-70
2022/07/29 02:43:10;;;;;;;3.47;2.35;;;15.00;82.60;;;;;;5095327;28;20032;-79
2022/07/29 02:45:36;;;;;;;7.30;2.00;;;14.90;83.00;;;;;;5095548;28;20024;-79
2022/07/29 02:48:13;;;;;;;3.75;2.10;;;15.00;82.70;;;;;;5095220;28;20026;-78
2022/07/29 02:50:48;;;;;;;4.30;2.13;;;15.00;82.80;;;;;;5095489;28;20062;-70
2022/07/29 02:53:19;;;;;;;1.83;1.70;;;15.00;82.40;;;;;;5093986;28;20382;-69
2022/07/29 02:56:14;;;;;;;3.38;2.17;;;15.00;82.30;;;;;;5095360;28;20028;-78
2022/07/29 02:58:53;;;;;;;5.07;1.90;;;15.00;81.90;;;;;;5095182;28;20048;-70
2022/07/29 03:01:31;;;;;;;4.15;2.05;;;15.00;82.00;;;;;;5095160;28;20020;-71
2022/07/29 03:04:00;;;;;;;4.40;1.83;;;15.00;81.40;;;;;;5095004;28;20109;-79
2022/07/29 03:06:28;;;;;;;2.22;1.70;;;15.00;81.20;;;;;;5095079;28;20031;-78
2022/07/29 03:08:56;;;;;;;3.38;2.10;;;15.00;81.50;;;;;;5093749;28;20035;-71
2022/07/29 03:11:22;;;;;;;4.82;1.90;;;15.00;80.90;;;;;;5095122;28;20115;-78
2022/07/29 03:13:49;;;;;;;9.52;3.58;;;15.00;81.00;;;;;;5094789;28;20031;-70
2022/07/29 03:16:15;;;;;;;4.60;1.95;;;15.10;80.70;;;;;;5094793;28;20439;-78
2022/07/29 03:18:42;;;;;;;11.38;2.80;;;15.10;80.50;;;;;;5094596;28;20032;-78
2022/07/29 03:21:08;;;;;;;2.33;1.58;;;15.20;80.00;;;;;;5094911;28;20427;-71
2022/07/29 03:23:34;;;;;;;4.25;2.40;;;15.20;79.50;;;;;;5094469;28;20036;-79
2022/07/29 03:26:00;;;;;;;4.13;1.70;;;15.30;79.50;;;;;;5094721;28;20074;-78
2022/07/29 03:28:27;;;;;;;7.30;1.95;;;15.40;79.20;;;;;;5094507;28;20077;-70
2022/07/29 03:30:53;;;;;;;4.43;1.80;;;15.40;78.70;;;;;;5094710;28;20020;-70
2022/07/29 03:33:19;;;;;;;2.53;2.05;;;15.40;78.30;;;;;;5094455;28;20027;-78
2022/07/29 03:35:45;;;;;;;4.47;2.03;;;15.50;78.00;;;;;;5094476;28;20027;-78
2022/07/29 03:38:11;;;;;;;3.25;1.60;;;15.50;78.00;;;;;;5093001;28;20032;-71
2022/07/29 03:41:05;;;;;;;4.40;2.15;;;15.50;77.30;;;;;;5094449;28;20016;-72
2022/07/29 03:43:34;;;;;;;2.15;1.83;;;15.50;77.60;;;;;;5094266;28;20036;-70
2022/07/29 03:46:01;;;;;;;2.15;1.50;;;15.50;76.90;;;;;;5094329;28;20024;-71
2022/07/29 03:48:30;;;;;;;3.67;2.03;;;15.50;77.00;;;;;;5092870;28;20017;-71
2022/07/29 03:50:56;;;;;;;2.53;1.83;;;15.50;77.40;;;;;;5094142;28;20020;-78
2022/07/29 03:53:22;;;;;;;2.55;1.85;;;15.50;77.10;;;;;;5094151;28;20056;-78
2022/07/29 03:55:53;;;;;;;3.35;1.90;;;15.50;77.30;;;;;;5094213;28;20024;-78
2022/07/29 03:58:19;;;;;;;3.13;2.33;;;15.50;77.40;;;;;;5093893;28;20032;-78
2022/07/29 04:00:46;;;;;;;2.20;1.95;;;15.50;77.80;;;;;;5093046;28;20074;-78
2022/07/29 04:03:13;;;;;;;4.32;1.70;;;15.40;78.40;;;;;;5093756;28;20036;-78
2022/07/29 04:05:39;;;;;;;4.05;1.92;;;15.30;79.10;;;;;;5094088;28;20023;-71
2022/07/29 04:08:05;;;;;;;1.40;1.30;;;15.30;79.10;;;;;;5092464;28;20541;-70
2022/07/29 04:10:31;;;;;;;3.70;1.77;;;15.30;79.70;;;;;;5093977;28;20020;-71
2022/07/29 04:12:57;;;;;;;4.57;1.50;;;15.30;79.60;;;;;;5093842;28;20026;-70
2022/07/29 04:15:23;;;;;;;1.83;1.40;;;15.30;78.90;;;;;;5093803;28;20020;-77
2022/07/29 04:17:48;;;;;;;2.70;1.73;;;15.30;79.30;;;;;;5093702;28;20024;-78
2022/07/29 04:20:14;;;;;;;2.95;1.52;;;15.30;78.90;;;;;;5092206;28;20385;-78
2022/07/29 04:22:40;;;;;;;4.85;1.60;;;15.40;78.30;;;;;;5093601;28;20051;-78
2022/07/29 04:25:06;;;;;;;2.72;1.63;;;15.60;77.10;;;;;;5093607;28;20077;-70
2022/07/29 04:27:32;;;;;;;2.13;1.50;;;15.70;76.70;;;;;;5093616;28;20057;-70
2022/07/29 04:29:58;;;;;;;2.88;1.67;;;15.80;75.60;;;;;;5091830;28;20016;-71
2022/07/29 04:32:24;;;;;;;4.63;2.20;;;15.90;74.90;;;;;;5093324;28;20028;-70
2022/07/29 04:34:50;;;;;;;2.17;1.52;;;16.10;74.10;;;;;;5093404;28;20112;-71
2022/07/29 04:37:15;;;;;;;3.25;1.52;;;16.20;73.40;;;;;;5093429;28;20493;-71
2022/07/29 04:39:41;;;;;;;4.60;1.40;;;16.30;72.80;;;;;;5093430;28;20024;-70
2022/07/29 04:42:07;;;;;;;2.78;1.50;;;16.50;71.60;;;;;;5091897;28;20074;-78
2022/07/29 04:44:32;;;;;;;3.05;2.40;;;16.60;70.80;;;;;;5093094;28;20020;-78
2022/07/29 04:46:58;;;;;;;4.13;1.50;;;16.70;70.30;;;;;;5093302;28;20024;-78
2022/07/29 04:49:24;;;;;;;6.82;1.92;;;16.80;69.80;;;;;;5093101;28;20017;-72
2022/07/29 04:51:50;;;;;;;4.32;1.67;;;16.90;69.30;;;;;;5093340;28;20074;-78
2022/07/29 04:54:15;;;;;;;3.05;1.70;;;16.90;68.40;;;;;;5091865;28;20393;-78
2022/07/29 04:56:41;;;;;;;2.63;1.73;;;17.00;68.10;;;;;;5092724;28;20400;-71
2022/07/29 04:59:07;;;;;;;2.90;1.50;;;17.10;67.80;;;;;;5093035;28;20090;-71
2022/07/29 05:01:33;;;;;;;2.72;1.55;;;17.20;68.00;;;;;;5093039;28;20031;-72
2022/07/29 05:03:59;;;;;;;2.78;1.58;;;17.30;68.00;;;;;;5091303;28;20044;-72
2022/07/29 05:06:24;;;;;;;3.72;1.50;;;17.30;67.30;;;;;;5092080;28;20040;-78
2022/07/29 05:08:50;;;;;;;8.07;1.52;;;17.40;67.00;;;;;;5091324;28;20039;-79
2022/07/29 05:11:16;;;;;;;4.75;2.28;;;17.40;66.70;;;;;;5092410;28;20024;-71
2022/07/29 05:13:42;;;;;;;1.30;1.20;;;17.50;66.50;;;;;;5090313;28;20028;-70
2022/07/29 05:16:08;;;;;;;3.63;2.30;;;17.60;66.50;;;;;;5092623;28;20020;-71
2022/07/29 05:18:34;;;;;;;4.65;2.60;;;17.70;66.00;;;;;;5091866;28;20489;-79
2022/07/29 05:21:00;;;;;;;4.32;1.65;;;17.70;65.50;;;;;;5091265;28;20032;-79
2022/07/29 05:23:26;;;;;;;5.45;1.83;;;17.80;64.80;;;;;;5093137;28;20485;-79
2022/07/29 05:25:51;;;;;;;6.25;1.80;;;17.90;64.80;;;;;;5092881;28;20062;-71
2022/07/29 05:28:17;;;;;;;4.78;1.73;;;18.00;64.50;;;;;;5091923;28;20028;-71
2022/07/29 05:30:44;;;;;;;3.38;1.60;;;18.10;64.30;;;;;;5089223;28;20016;-78
2022/07/29 05:33:10;;;;;;;2.95;1.67;;;18.20;63.70;;;;;;5091424;28;20497;-78
2022/07/29 05:35:36;;;;;;;5.05;2.00;;;18.20;63.60;;;;;;5090599;28;20377;-79
2022/07/29 05:38:02;;;;;;;2.25;1.27;;;18.30;63.10;;;;;;5091869;28;20118;-79
2022/07/29 05:40:28;;;;;;;2.80;1.50;;;18.40;63.00;;;;;;5091716;28;20028;-71
2022/07/29 05:42:54;;;;;;;5.07;1.25;;;18.50;62.70;;;;;;5096013;28;20516;-78
2022/07/29 05:45:20;;;;;;;2.28;1.48;;;18.60;62.90;;;;;;5095660;28;20028;-71
2022/07/29 05:47:46;;;;;;;2.92;1.70;;;18.60;62.60;;;;;;5089898;28;20074;-79
2022/07/29 05:50:12;;;;;;;3.78;1.58;;;18.70;62.70;;;;;;5091468;28;20024;-78
2022/07/29 05:52:38;;;;;;;3.28;1.33;;;18.70;62.40;;;;;;5089497;28;20058;-71
2022/07/29 05:55:05;;;;;;;2.78;1.38;;;18.80;62.50;;;;;;5094813;28;20024;-71
2022/07/29 05:57:32;;;;;;;1.98;1.40;;;18.90;62.30;;;;;;5094733;28;20024;-79
2022/07/29 05:59:57;;;;;;;2.25;1.27;;;19.00;62.40;;;;;;5094039;28;20020;-78
2022/07/29 06:02:23;;;;;;;5.07;1.80;;;19.10;61.90;;;;;;5092247;28;20493;-79
2022/07/29 06:04:49;;;;;;;2.90;1.77;;;19.20;61.90;;;;;;5092994;28;20629;-71
2022/07/29 06:07:16;;;;;;;5.70;2.25;;;19.30;62.10;;;;;;5091836;28;20103;-71
2022/07/29 06:09:42;;;;;;;2.90;1.02;;;19.40;61.80;;;;;;5093783;28;20033;-71
2022/07/29 06:12:08;;;;;;;5.50;1.52;;;19.40;61.60;;;;;;5092832;28;20024;-79
2022/07/29 06:14:35;;;;;;;3.85;1.58;;;19.40;61.60;;;;;;5094198;28;20489;-79
2022/07/29 06:17:01;;;;;;;2.75;1.58;;;19.50;61.80;;;;;;5093025;28;20024;-79
2022/07/29 06:19:26;;;;;;;2.13;1.50;;;19.60;61.50;;;;;;5093219;28;20057;-71
2022/07/29 06:21:52;;;;;;;3.17;1.70;;;19.60;61.50;;;;;;5088836;28;20051;-69
2022/07/29 06:24:18;;;;;;;3.25;1.90;;;19.90;61.90;;;;;;5089731;28;20046;-79
2022/07/29 06:26:44;;;;;;;4.22;1.83;;;20.00;61.60;;;;;;5091787;28;20052;-80
2022/07/29 06:29:10;;;;;;;2.42;1.42;;;20.10;61.70;;;;;;5090861;28;20032;-71
2022/07/29 06:31:37;;;;;;;4.65;1.67;;;20.20;61.50;;;;;;5092280;28;20020;-79
2022/07/29 06:34:03;;;;;;;4.47;1.70;;;20.30;61.70;;;;;;5088906;28;20492;-79
2022/07/29 06:36:29;;;;;;;5.57;1.95;;;20.50;61.50;;;;;;5090028;28;20027;-78
2022/07/29 06:38:55;;;;;;;3.55;2.05;;;20.60;61.30;;;;;;5087604;28;20115;-77
2022/07/29 06:41:20;;;;;;;4.10;1.90;;;20.70;60.80;;;;;;5092676;28;20095;-69
2022/07/29 06:43:46;;;;;;;2.17;1.73;;;20.90;60.50;;;;;;5075483;28;20405;-77
2022/07/29 06:46:15;;;;;;;5.47;1.83;;;21.00;59.70;;;;;;5074064;28;20017;-69
2022/07/29 06:48:44;;;;;;;2.90;1.80;;;21.10;59.50;;;;;;5076747;28;20032;-69
2022/07/29 06:51:11;;;;;;;5.90;2.35;;;21.00;59.10;;;;;;5091679;28;20051;-69
2022/07/29 06:53:38;;;;;;;4.97;1.80;;;21.10;59.00;;;;;;5087880;28;20122;-69
2022/07/29 06:56:08;;;;;;;4.25;1.80;;;21.10;59.10;;;;;;5092109;28;20380;-77
2022/07/29 06:58:34;;;;;;;3.88;1.52;;;21.20;58.50;;;;;;5090264;28;20058;-69
2022/07/29 07:01:02;;;;;;;3.97;1.90;;;21.20;58.50;;;;;;5090184;28;20512;-68
2022/07/29 07:03:28;;;;;;;3.78;1.55;;;21.20;58.20;;;;;;5087946;28;20066;-69
2022/07/29 07:05:54;;;;;;;5.55;1.92;;;21.40;58.00;;;;;;5090394;28;20020;-77
2022/07/29 07:08:21;;;;;;;7.13;1.70;;;21.30;57.80;;;;;;5090327;28;20028;-78
2022/07/29 07:10:48;;;;;;;2.97;1.95;;;21.40;57.90;;;;;;5089599;28;20020;-77
2022/07/29 07:13:14;;;;;;;5.75;1.92;;;21.40;58.20;;;;;;5089072;28;20039;-77
2022/07/29 07:15:40;;;;;;;3.40;1.63;;;21.20;58.00;;;;;;5088764;28;20026;-70
2022/07/29 07:18:07;;;;;;;2.92;1.48;;;21.10;58.80;;;;;;5087023;28;20039;-77
2022/07/29 07:20:33;;;;;;;3.85;2.10;;;21.10;58.70;;;;;;5089946;28;20036;-77
2022/07/29 07:22:59;;;;;;;3.28;1.98;;;21.40;58.50;;;;;;5089185;28;20028;-77
2022/07/29 07:25:25;;;;;;;1.98;1.75;;;21.60;58.20;;;;;;5089139;28;20028;-70
2022/07/29 07:27:51;;;;;;;3.60;1.85;;;21.60;57.80;;;;;;5088996;28;20053;-69
2022/07/29 07:30:16;;;;;;;2.20;1.45;;;21.80;57.40;;;;;;5089011;28;20486;-69
2022/07/29 07:32:43;;;;;;;4.45;2.00;;;21.90;56.90;;;;;;5089423;28;20054;-77
2022/07/29 07:35:10;;;;;;;3.08;2.20;;;22.00;56.50;;;;;;5089274;28;20459;-70
2022/07/29 07:37:37;;;;;;;3.22;1.55;;;22.10;56.00;;;;;;5089001;28;20023;-69
2022/07/29 07:40:03;;;;;;;4.68;1.70;;;22.20;56.30;;;;;;5088174;28;20043;-77
2022/07/29 07:42:29;;;;;;;4.25;1.90;;;22.10;55.60;;;;;;5087947;28;20028;-69
2022/07/29 07:44:54;;;;;;;5.00;1.67;;;22.20;55.60;;;;;;5086859;28;20043;-77
2022/07/29 07:47:20;;;;;;;4.88;1.70;;;22.30;55.40;;;;;;5082706;28;20028;-78
2022/07/29 07:49:53;;;;;;;4.22;2.00;;;22.30;55.20;;;;;;5080845;28;20482;-77
2022/07/29 07:52:20;;;;;;;3.92;2.08;;;22.40;55.40;;;;;;5088175;28;20048;-77
2022/07/29 07:54:46;;;;;;;4.25;2.00;;;22.30;55.30;;;;;;5085651;28;20032;-70
2022/07/29 07:57:13;;;;;;;3.47;1.70;;;22.30;55.30;;;;;;5092684;28;20016;-77
2022/07/29 07:59:39;;;;;;;3.70;1.70;;;22.40;55.70;;;;;;5084693;28;20166;-77
2022/07/29 08:02:05;;;;;;;3.78;2.00;;;22.50;56.00;;;;;;5087049;28;20020;-77
2022/07/29 08:04:31;;;;;;;4.78;1.92;;;22.50;55.70;;;;;;5084407;28;20414;-77
2022/07/29 08:06:57;;;;;;;6.30;1.88;;;22.60;55.30;;;;;;5088379;28;20020;-77
2022/07/29 08:09:24;;;;;;;4.13;1.95;;;22.70;55.20;;;;;;5082888;28;20040;-69
2022/07/29 08:11:50;;;;;;;1.83;1.60;;;22.80;55.40;;;;;;5081477;28;20487;-69
2022/07/29 08:14:16;;;;;;;7.70;2.78;;;23.00;55.00;;;;;;5082037;28;20032;-77
2022/07/29 08:16:42;;;;;;;5.85;2.10;;;23.00;54.80;;;;;;5086751;28;20056;-70
2022/07/29 08:19:08;;;;;;;2.00;1.85;;;23.10;55.20;;;;;;5087718;28;20107;-78
2022/07/29 08:21:33;;;;;;;4.57;1.80;;;23.30;55.10;;;;;;5086436;28;20106;-77
2022/07/29 08:26:54;;;;;;;6.03;2.03;;;23.20;54.40;;;;;;5068107;28;20028;-78
2022/07/29 08:29:19;;;;;;;1.90;1.70;;;23.40;54.50;;;;;;5073419;28;20043;-77
2022/07/29 08:31:45;;;;;;;4.93;1.85;;;23.50;54.30;;;;;;5073009;28;20052;-75
2022/07/29 08:34:11;;;;;;;3.85;2.00;;;23.50;53.80;;;;;;5071899;28;20029;-76
2022/07/29 08:36:38;;;;;;;2.63;1.95;;;23.60;54.00;;;;;;5074393;28;20025;-69
2022/07/29 08:39:04;;;;;;;2.03;1.80;;;23.60;53.50;;;;;;5072780;28;20067;-71
2022/07/29 08:41:31;;;;;;;3.97;2.10;;;23.70;54.20;;;;;;5073158;28;20033;-70
2022/07/29 08:43:57;;;;;;;4.13;2.08;;;23.90;53.90;;;;;;5073320;28;20533;-77
2022/07/29 08:46:23;;;;;;;2.53;1.67;;;23.80;53.20;;;;;;5078083;28;20031;-77
2022/07/29 08:48:49;;;;;;;2.60;1.70;;;23.80;53.00;;;;;;5091894;28;20465;-70
2022/07/29 08:51:18;;;;;;;4.85;2.15;;;24.10;53.60;;;;;;5093011;28;20035;-78
2022/07/29 08:53:47;;;;;;;7.07;2.10;;;24.10;53.50;;;;;;5091796;28;20048;-70
2022/07/29 08:56:17;;;;;;;3.63;2.05;;;24.20;53.10;;;;;;5093321;28;20099;-70
2022/07/29 08:58:44;;;;;;;4.13;1.73;;;24.30;53.20;;;;;;5093141;28;20024;-70
2022/07/29 09:01:11;;;;;;;2.63;2.22;;;24.30;53.30;;;;;;5093280;28;20089;-70
2022/07/29 09:03:39;;;;;;;2.50;1.52;;;24.10;53.60;;;;;;5093145;28;20032;-77
2022/07/29 09:06:05;;;;;;;2.35;1.88;;;24.10;53.60;;;;;;5088614;28;20016;-70
2022/07/29 09:08:32;;;;;;;6.20;2.20;;;24.10;53.40;;;;;;5092031;28;20153;-70
2022/07/29 09:11:00;;;;;;;6.50;1.88;;;24.10;54.00;;;;;;5091587;28;20028;-70
2022/07/29 09:13:26;;;;;;;3.72;2.00;;;24.30;53.90;;;;;;5090663;28;20024;-71
2022/07/29 09:15:52;;;;;;;3.88;2.15;;;24.50;53.80;;;;;;5092893;28;20388;-70
2022/07/29 09:18:35;;;;;;;2.55;1.80;;;24.40;53.10;;;;;;5096114;28;20028;-70
2022/07/29 09:24:08;;;;;;;4.95;2.22;;;24.60;53.20;;;;;;5092646;28;20083;-75
2022/07/29 09:26:42;;;;;;;2.35;2.00;;;24.70;53.20;;;;;;5095256;28;20478;-70
2022/07/29 09:29:09;;;;;;;3.75;2.63;;;24.80;52.90;;;;;;5094399;28;20272;-78
2022/07/29 09:31:38;;;;;;;3.88;2.67;;;24.70;53.10;;;;;;5096133;28;20051;-70
2022/07/29 09:34:04;;;;;;;2.67;2.30;;;24.80;53.20;;;;;;5094654;28;20024;-70
2022/07/29 09:36:30;;;;;;;3.00;2.47;;;24.70;53.20;;;;;;5096129;28;20020;-70
2022/07/29 09:39:01;;;;;;;4.65;2.35;;;24.70;53.40;;;;;;5094381;28;20031;-71
2022/07/29 09:41:43;;;;;;;4.75;2.15;;;24.50;53.60;;;;;;5084380;28;20035;-77
2022/07/29 09:44:09;;;;;;;3.13;2.28;;;24.80;53.90;;;;;;5085644;28;20059;-77
2022/07/29 09:46:35;;;;;;;2.53;2.30;;;24.80;53.20;;;;;;5079588;28;20012;-70
2022/07/29 09:49:14;;;;;;;6.20;2.90;;;24.80;52.80;;;;;;5094679;28;20063;-70
2022/07/29 09:51:41;;;;;;;5.40;2.78;;;24.80;52.70;;;;;;5094062;28;20052;-77
2022/07/29 09:54:26;;;;;;;5.28;2.28;;;25.00;52.90;;;;;;5095428;28;20035;-77
2022/07/29 09:56:52;;;;;;;2.83;2.63;;;25.20;53.30;;;;;;5093105;28;20043;-77
2022/07/29 09:59:20;;;;;;;5.25;3.10;;;25.20;53.00;;;;;;5095007;28;20020;-70
2022/07/29 10:01:49;;;;;;;5.95;3.03;;;25.20;53.00;;;;;;5093791;28;20115;-77
2022/07/29 10:04:16;;;;;;;5.55;2.60;;;25.30;52.30;;;;;;5093140;28;20040;-73
2022/07/29 10:07:00;;;;;;;4.85;2.88;;;25.50;51.90;;;;;;5085754;28;20024;-77
2022/07/29 10:09:26;;;;;;;8.27;3.00;;;25.50;51.80;;;;;;5095005;28;20027;-77
2022/07/29 10:12:15;;;;;;;4.05;2.45;;;25.70;52.30;;;;;;5094452;28;20019;-77
2022/07/29 10:14:42;;;;;;;4.32;2.80;;;25.50;51.50;;;;;;5093311;28;20477;-71
2022/07/29 10:17:09;;;;;;;3.03;2.42;;;25.40;51.80;;;;;;5094275;28;20491;-70
2022/07/29 10:19:37;;;;;;;4.55;2.70;;;25.50;52.20;;;;;;5094334;28;20013;-78
2022/07/29 10:22:05;;;;;;;6.40;2.70;;;25.70;51.90;;;;;;5094249;28;20011;-70
2022/07/29 10:24:32;;;;;;;5.57;3.20;;;25.80;51.80;;;;;;5094546;28;20040;-70
2022/07/29 10:27:00;;;;;;;3.33;2.90;;;25.90;51.20;;;;;;5091235;28;20021;-71
2022/07/29 10:29:26;;;;;;;5.80;3.30;;;25.90;51.10;;;;;;5092412;28;20032;-77
2022/07/29 10:31:58;;;;;;;3.20;3.00;;;25.90;51.30;;;;;;5092529;28;20115;-78
2022/07/29 10:34:52;;;;;;;3.42;3.08;;;26.10;51.40;;;;;;5084232;28;20046;-71
2022/07/29 10:37:43;;;;;;;2.95;2.75;;;26.40;52.20;;;;;;5085410;28;20115;-78
2022/07/29 10:43:26;;;;;;;7.07;3.17;;;26.80;50.10;;;;;;5075382;28;20140;-77
2022/07/29 10:45:57;;;;;;;4.75;3.33;;;26.90;49.40;;;;;;5082235;28;20085;-72
2022/07/29 10:48:23;;;;;;;3.72;3.20;;;26.90;49.50;;;;;;5093481;28;20040;-71
2022/07/29 10:51:03;;;;;;;3.92;3.08;;;26.90;49.30;;;;;;5092913;28;20389;-79
2022/07/29 10:53:49;;;;;;;4.18;2.47;;;26.80;49.30;;;;;;5092770;28;20044;-78
2022/07/29 10:56:40;;;;;;;5.25;3.30;;;26.60;49.70;;;;;;5092422;28;20066;-71
2022/07/29 10:59:20;;;;;;;3.50;2.55;;;26.70;49.40;;;;;;5084891;28;20046;-72
2022/07/29 11:01:50;;;;;;;7.20;3.20;;;26.80;50.00;;;;;;5091919;28;20102;-73
2022/07/29 11:04:45;;;;;;;5.00;3.85;;;27.00;50.30;;;;;;5092669;28;20070;-72
2022/07/29 11:07:12;;;;;;;3.40;2.92;;;26.90;48.90;;;;;;5091219;28;20478;-72
2022/07/29 11:09:38;;;;;;;5.07;3.25;;;26.80;48.50;;;;;;5090129;28;20036;-71
2022/07/29 11:12:22;;;;;;;3.55;2.67;;;26.60;49.20;;;;;;5093556;28;20027;-78
2022/07/29 11:14:55;;;;;;;4.75;2.88;;;26.50;49.90;;;;;;5092106;28;20035;-79
2022/07/29 11:17:21;;;;;;;6.63;3.30;;;26.70;50.30;;;;;;5091964;28;20424;-79
2022/07/29 11:19:46;;;;;;;6.28;2.83;;;26.70;49.90;;;;;;5093270;28;20036;-80
2022/07/29 11:22:35;;;;;;;4.03;2.85;;;26.80;50.10;;;;;;5093800;28;20051;-79
2022/07/29 11:25:17;;;;;;;4.10;2.70;;;26.90;49.20;;;;;;5091709;28;20052;-72
2022/07/29 11:27:47;;;;;;;5.65;2.80;;;27.00;50.50;;;;;;5092271;28;20130;-71
2022/07/29 11:30:13;;;;;;;3.60;2.53;;;26.70;49.20;;;;;;5082406;28;20032;-71
2022/07/29 11:32:40;;;;;;;4.47;3.13;;;26.60;49.20;;;;;;5093166;28;20026;-80
2022/07/29 11:35:24;;;;;;;10.13;3.42;;;26.40;49.90;;;;;;5091636;28;20031;-79
2022/07/29 11:38:29;;;;;;;7.53;2.67;;;26.20;50.70;;;;;;5093391;28;20081;-79
2022/07/29 11:41:19;;;;;;;3.28;2.53;;;26.20;51.20;;;;;;5061011;28;20109;-79
2022/07/29 11:43:49;;;;;;;4.53;3.10;;;26.20;51.40;;;;;;5052512;28;20032;-80
2022/07/29 11:46:15;;;;;;;6.50;2.20;;;26.40;50.90;;;;;;5078219;28;20481;-79
2022/07/29 11:48:44;;;;;;;2.80;2.60;;;26.70;50.20;;;;;;5092265;28;20032;-72
2022/07/29 11:51:11;;;;;;;10.15;3.05;;;26.80;50.30;;;;;;5085539;28;20094;-79
2022/07/29 11:53:38;;;;;;;4.53;2.83;;;26.90;50.00;;;;;;5091693;28;20048;-72
2022/07/29 11:56:08;;;;;;;4.22;2.60;;;26.90;50.00;;;;;;5092408;28;20046;-71
2022/07/29 11:58:35;;;;;;;3.22;2.90;;;26.90;49.40;;;;;;5092698;28;20051;-71
2022/07/29 12:01:01;;;;;;;4.22;2.72;;;26.80;49.50;;;;;;5086980;28;20062;-79
2022/07/29 12:03:28;;;;;;;4.95;2.78;;;26.80;49.80;;;;;;5091802;28;20408;-80
2022/07/29 12:05:54;;;;;;;3.92;2.90;;;26.90;50.00;;;;;;5086923;28;20028;-79
2022/07/29 12:08:25;;;;;;;4.18;2.88;;;26.70;50.00;;;;;;5080423;28;20385;-79
2022/07/29 12:10:52;;;;;;;3.63;2.47;;;26.60;50.60;;;;;;5090458;28;20106;-79
2022/07/29 12:13:19;;;;;;;3.95;2.95;;;26.60;50.30;;;;;;5092911;28;20046;-79
2022/07/29 12:15:56;;;;;;;5.38;3.22;;;26.50;50.20;;;;;;5078620;28;20115;-79
2022/07/29 12:18:23;;;;;;;4.18;3.03;;;26.50;50.10;;;;;;5092160;28;20024;-71
2022/07/29 12:20:57;;;;;;;5.40;3.03;;;26.50;50.20;;;;;;5092010;28;20040;-80
2022/07/29 12:23:23;;;;;;;5.18;2.97;;;26.60;50.20;;;;;;5091288;28;20396;-72
2022/07/29 12:25:48;;;;;;;4.18;2.63;;;26.60;50.20;;;;;;5091464;28;20036;-72
2022/07/29 12:28:18;;;;;;;4.10;3.03;;;26.50;50.20;;;;;;5092728;28;20024;-71
2022/07/29 12:30:49;;;;;;;4.50;3.00;;;26.60;50.10;;;;;;5090532;28;20036;-79
2022/07/29 12:33:22;;;;;;;5.57;3.13;;;26.80;51.00;;;;;;5090789;28;20017;-79
2022/07/29 12:36:00;;;;;;;4.20;2.83;;;26.70;50.00;;;;;;5090646;28;20024;-72
2022/07/29 12:38:26;;;;;;;3.35;2.72;;;26.70;49.70;;;;;;5091143;28;20056;-72
2022/07/29 12:40:53;;;;;;;3.88;3.55;;;26.50;49.80;;;;;;5091189;28;20040;-79
2022/07/29 12:43:20;;;;;;;4.22;2.67;;;26.70;50.30;;;;;;5084298;28;20055;-77
2022/07/29 12:45:55;;;;;;;4.95;2.70;;;26.60;50.00;;;;;;5093222;28;20077;-71
2022/07/29 12:48:38;;;;;;;6.95;3.45;;;26.80;49.40;;;;;;5092319;28;20153;-76
2022/07/29 12:51:06;;;;;;;5.18;2.65;;;26.80;50.10;;;;;;5091213;28;20027;-76
2022/07/29 12:53:33;;;;;;;5.15;2.63;;;26.80;50.00;;;;;;5092983;28;20083;-77
2022/07/29 12:56:01;;;;;;;3.30;3.00;;;26.60;50.40;;;;;;5093150;28;20020;-71
2022/07/29 12:58:39;;;;;;;4.07;2.90;;;26.50;50.40;;;;;;5093053;28;20024;-71
2022/07/29 13:01:14;;;;;;;3.30;3.00;;;26.50;50.60;;;;;;5092829;28;20027;-70
2022/07/29 13:03:46;;;;;;;5.40;2.83;;;26.30;51.10;;;;;;5092716;28;20521;-71
2022/07/29 13:06:58;;;;;;;3.88;2.92;;;26.50;51.40;;;;;;5092828;28;20020;-70
2022/07/29 13:09:35;;;;;;;3.70;3.05;;;26.80;50.60;;;;;;5050572;28;20487;-77